createdAt,value
2022-11-17T00:03:41.789Z,8.00
2022-11-17T00:08:45.952Z,7.00
2022-11-17T00:14:06.440Z,7.25
2022-11-17T00:19:27.253Z,3.25
2022-11-17T00:24:31.369Z,6.00
2022-11-17T00:29:39.048Z,5.75
2022-11-17T00:34:42.117Z,7.50
2022-11-17T00:39:46.209Z,4.75
2022-11-17T00:44:51.982Z,7.50
2022-11-17T00:49:54.695Z,5.00
2022-11-17T00:54:58.881Z,4.00
2022-11-17T01:00:01.654Z,5.00
2022-11-17T01:05:04.713Z,6.25
2022-11-17T01:10:10.358Z,3.50
2022-11-17T01:15:13.124Z,4.33
2022-11-17T01:20:16.325Z,4.00
2022-11-17T01:25:20.670Z,4.50
2022-11-17T01:30:23.453Z,4.25
2022-11-17T01:35:26.210Z,5.00
2022-11-17T01:40:30.372Z,3.00
2022-11-17T01:45:33.290Z,4.75
2022-11-17T01:50:40.125Z,3.50
2022-11-17T01:55:50.093Z,5.00
2022-11-17T02:00:55.289Z,3.00
2022-11-17T02:06:04.327Z,5.25
2022-11-17T02:11:15.143Z,5.25
2022-11-17T02:16:18.663Z,4.00
2022-11-17T02:21:43.821Z,4.50
2022-11-17T02:27:09.824Z,3.25
2022-11-17T02:32:20.392Z,3.75
2022-11-17T02:37:32.724Z,3.25
2022-11-17T02:42:57.858Z,6.00
2022-11-17T02:48:06.938Z,5.00
2022-11-17T02:53:10.044Z,2.75
2022-11-17T02:58:12.970Z,5.00
2022-11-17T03:03:38.029Z,3.50
2022-11-17T03:08:48.920Z,3.00
2022-11-17T03:14:02.769Z,2.50
2022-11-17T03:19:15.866Z,5.00
2022-11-17T03:24:22.936Z,2.75
2022-11-17T03:29:30.310Z,4.25
2022-11-17T03:34:38.408Z,3.75
2022-11-17T03:39:44.697Z,2.00
2022-11-17T03:44:55.736Z,3.50
2022-11-17T03:50:04.936Z,3.00
2022-11-17T03:55:10.041Z,3.00
2022-11-17T04:00:15.053Z,2.25
2022-11-17T04:05:19.330Z,2.75
2022-11-17T04:10:25.703Z,3.25
2022-11-17T04:15:46.322Z,3.75
2022-11-17T04:20:53.297Z,1.50
2022-11-17T04:26:15.009Z,3.00
2022-11-17T04:31:19.354Z,3.00
2022-11-17T04:36:25.714Z,1.75
2022-11-17T04:41:47.299Z,2.25
2022-11-17T04:46:50.465Z,3.00
2022-11-17T04:51:55.380Z,3.00
2022-11-17T04:56:58.366Z,2.00
2022-11-17T05:02:05.627Z,3.25
2022-11-17T05:07:10.426Z,3.25
2022-11-17T05:12:30.819Z,2.50
2022-11-17T05:17:33.601Z,3.50
2022-11-17T05:22:55.098Z,2.25
2022-11-17T05:27:57.837Z,2.00
2022-11-17T05:33:00.609Z,1.75
2022-11-17T05:38:04.691Z,2.00
2022-11-17T05:43:07.401Z,1.00
2022-11-17T05:48:10.132Z,2.00
2022-11-17T05:53:14.492Z,1.75
2022-11-17T05:58:22.032Z,2.00
2022-11-17T06:03:29.049Z,1.00
2022-11-17T06:08:33.126Z,2.75
2022-11-17T06:13:36.250Z,1.00
2022-11-17T06:18:45.846Z,1.75
2022-11-17T06:23:51.538Z,1.00
2022-11-17T06:28:55.112Z,2.75
2022-11-17T06:33:57.850Z,3.00
2022-11-17T06:39:01.999Z,1.00
2022-11-17T06:44:04.907Z,2.00
2022-11-17T06:49:08.516Z,2.00
2022-11-17T06:54:14.520Z,1.75
2022-11-17T06:59:17.555Z,2.00
2022-11-17T07:04:20.336Z,1.50
2022-11-17T07:09:25.300Z,1.00
2022-11-17T07:14:28.322Z,1.00
2022-11-17T07:19:31.030Z,1.75
2022-11-17T07:24:35.139Z,1.00
2022-11-17T07:29:37.931Z,1.00
2022-11-17T07:34:40.961Z,2.75
2022-11-17T07:39:45.038Z,1.00
2022-11-17T07:44:47.769Z,3.00
2022-11-17T07:49:50.657Z,2.75
2022-11-17T07:54:54.880Z,2.25
2022-11-17T07:59:57.613Z,3.25
2022-11-17T08:05:00.364Z,1.50
2022-11-17T08:10:05.000Z,3.75
2022-11-17T08:15:09.251Z,8.00
2022-11-17T08:20:13.441Z,5.25
2022-11-17T08:25:17.974Z,3.50
2022-11-17T08:30:20.836Z,3.00
2022-11-17T08:35:25.895Z,3.50
2022-11-17T08:40:30.044Z,3.50
2022-11-17T08:45:32.780Z,1.75
2022-11-17T08:50:36.274Z,3.50
2022-11-17T08:55:41.457Z,3.50
2022-11-17T09:00:45.443Z,2.75
2022-11-17T09:05:48.350Z,2.50
2022-11-17T09:10:52.601Z,2.50
2022-11-17T09:15:55.329Z,3.00
2022-11-17T09:21:01.122Z,1.75
2022-11-17T09:26:08.839Z,2.25
2022-11-17T09:31:13.967Z,2.50
2022-11-17T09:36:17.398Z,1.50
2022-11-17T09:41:27.553Z,2.00
2022-11-17T09:46:42.469Z,3.50
2022-11-17T09:51:50.970Z,3.00
2022-11-17T09:56:57.663Z,2.00
2022-11-17T10:02:00.631Z,2.25
2022-11-17T10:07:04.614Z,3.00
2022-11-17T10:12:17.104Z,1.25
2022-11-17T10:17:19.893Z,0.00
2022-11-17T10:22:35.357Z,1.50
2022-11-17T10:27:52.732Z,2.00
2022-11-17T10:32:57.336Z,1.50
2022-11-17T10:38:01.764Z,3.50
2022-11-17T10:43:21.964Z,1.50
2022-11-17T10:48:28.894Z,2.50
2022-11-17T10:53:44.924Z,1.75
2022-11-17T10:59:17.837Z,4.00
2022-11-17T11:04:33.042Z,1.50
2022-11-17T11:09:38.532Z,2.00
2022-11-17T11:14:48.810Z,1.25
2022-11-17T11:19:53.892Z,1.25
2022-11-17T11:25:09.201Z,0.75
2022-11-17T11:30:16.311Z,0.75
2022-11-17T11:35:36.545Z,1.00
2022-11-17T11:40:41.641Z,0.50
2022-11-17T11:45:56.482Z,0.75
2022-11-17T11:51:00.841Z,0.75
2022-11-17T11:56:15.132Z,2.50
2022-11-17T12:01:22.589Z,0.75
2022-11-17T12:06:43.643Z,1.00
2022-11-17T12:12:02.037Z,1.00
2022-11-17T12:17:17.164Z,1.50
2022-11-17T12:22:44.600Z,0.00
2022-11-17T12:27:50.061Z,1.00
2022-11-17T12:32:55.394Z,0.50
2022-11-17T12:38:37.290Z,1.00
2022-11-17T12:43:40.145Z,2.25
2022-11-17T12:48:54.278Z,0.75
2022-11-17T12:54:07.830Z,2.75
2022-11-17T12:59:31.313Z,1.75
2022-11-17T13:04:49.179Z,0.50
2022-11-17T13:09:53.964Z,2.00
2022-11-17T13:14:58.506Z,2.00
2022-11-17T13:20:05.424Z,1.25
2022-11-17T13:25:22.412Z,3.25
2022-11-17T13:30:27.329Z,1.00
2022-11-17T13:35:33.257Z,0.75
2022-11-17T13:40:37.895Z,0.75
2022-11-17T13:45:43.377Z,0.25
2022-11-17T13:50:48.032Z,0.50
2022-11-17T13:55:51.626Z,2.00
2022-11-17T14:00:57.056Z,0.50
2022-11-17T14:06:01.408Z,1.25
2022-11-17T14:11:22.217Z,1.25
2022-11-17T14:16:27.981Z,1.00
2022-11-17T14:21:33.453Z,1.75
2022-11-17T14:26:41.434Z,1.00
2022-11-17T14:31:44.390Z,1.00
2022-11-17T14:36:50.896Z,0.00
2022-11-17T14:41:53.659Z,2.00
2022-11-17T14:46:56.368Z,2.25
2022-11-17T14:52:00.453Z,2.50
2022-11-17T14:57:03.210Z,2.00
2022-11-17T15:02:09.791Z,1.25
2022-11-17T15:07:14.304Z,1.25
2022-11-17T15:12:17.173Z,1.25
2022-11-17T15:17:20.371Z,3.00
2022-11-17T15:22:24.515Z,4.75
2022-11-17T15:27:27.372Z,3.50
2022-11-17T15:32:30.132Z,2.00
2022-11-17T15:37:34.266Z,2.00
2022-11-17T15:42:37.027Z,3.75
2022-11-17T15:47:39.727Z,3.00
2022-11-17T15:53:08.463Z,2.50
2022-11-17T15:58:06.869Z,1.00
2022-11-17T16:03:09.773Z,2.00
2022-11-17T16:08:13.880Z,2.00
2022-11-17T16:13:16.661Z,2.00
2022-11-17T16:18:19.493Z,3.75
2022-11-17T16:23:23.705Z,7.25
2022-11-17T16:28:27.022Z,7.50
2022-11-17T16:33:29.745Z,15.50
2022-11-17T16:38:33.935Z,23.00
2022-11-17T16:43:41.623Z,34.60
2022-11-17T16:48:48.090Z,47.80
2022-11-17T16:53:56.752Z,47.80
2022-11-17T16:58:59.883Z,45.00
2022-11-17T17:04:04.657Z,47.20
2022-11-17T17:09:10.390Z,48.60
2022-11-17T17:14:14.552Z,44.40
2022-11-17T17:19:18.537Z,43.20
2022-11-17T17:24:22.945Z,43.00
2022-11-17T17:29:25.713Z,43.40
2022-11-17T17:34:28.651Z,42.40
2022-11-17T17:39:33.549Z,42.20
2022-11-17T17:44:36.289Z,37.40
2022-11-17T17:49:39.122Z,41.60
2022-11-17T17:54:43.218Z,36.40
2022-11-17T17:59:45.971Z,36.60
2022-11-17T18:04:48.814Z,29.20
2022-11-17T18:09:52.923Z,31.00
2022-11-17T18:14:55.643Z,28.80
2022-11-17T18:19:58.433Z,25.60
2022-11-17T18:25:07.355Z,24.60
2022-11-17T18:30:11.258Z,25.80
2022-11-17T18:35:14.011Z,23.40
2022-11-17T18:40:18.733Z,21.40
2022-11-17T18:45:21.578Z,21.00
2022-11-17T18:50:24.376Z,19.25
2022-11-17T18:55:28.538Z,18.25
2022-11-17T19:00:31.290Z,15.00
2022-11-17T19:05:35.218Z,16.75
2022-11-17T19:10:39.485Z,15.00
2022-11-17T19:15:42.233Z,14.00
2022-11-17T19:20:45.554Z,17.50
2022-11-17T19:25:49.742Z,15.00
2022-11-17T19:30:52.672Z,14.25
2022-11-17T19:35:55.590Z,12.25
2022-11-17T19:41:03.882Z,13.00
2022-11-17T19:46:08.551Z,13.00
2022-11-17T19:51:16.881Z,12.75
2022-11-17T19:56:22.018Z,12.50
2022-11-17T20:01:26.661Z,15.00
2022-11-17T20:06:31.973Z,13.50
2022-11-17T20:11:36.909Z,13.25
2022-11-17T20:16:39.690Z,10.00
2022-11-17T20:21:42.726Z,11.00
2022-11-17T20:26:47.205Z,8.00
2022-11-17T20:31:50.063Z,10.25
2022-11-17T20:36:52.917Z,8.00
2022-11-17T20:41:57.088Z,7.75
2022-11-17T20:46:59.883Z,11.25
2022-11-17T20:52:02.643Z,9.50
2022-11-17T20:57:06.855Z,9.75
2022-11-17T21:02:10.286Z,8.25
2022-11-17T21:07:13.359Z,11.75
2022-11-17T21:12:17.577Z,8.75
2022-11-17T21:17:46.826Z,7.50
2022-11-17T21:22:49.900Z,9.00
2022-11-17T21:27:54.209Z,10.00
2022-11-17T21:32:56.921Z,8.75
2022-11-17T21:37:59.720Z,9.00
2022-11-17T21:43:03.791Z,7.50
2022-11-17T21:48:06.919Z,11.00
2022-11-17T21:53:09.722Z,7.75
2022-11-17T21:58:13.911Z,8.00
2022-11-17T22:03:16.628Z,8.25
2022-11-17T22:08:19.377Z,7.50
2022-11-17T22:13:23.516Z,9.00
2022-11-17T22:18:26.330Z,8.25
2022-11-17T22:23:29.487Z,10.75
2022-11-17T22:28:33.618Z,8.25
2022-11-17T22:33:39.916Z,10.00
2022-11-17T22:38:43.154Z,9.00
2022-11-17T22:43:51.609Z,8.00
2022-11-17T22:48:54.563Z,7.50
2022-11-17T22:53:57.399Z,6.75
2022-11-17T22:59:01.635Z,7.75
2022-11-17T23:04:04.685Z,7.75
2022-11-17T23:09:07.526Z,8.00
2022-11-17T23:14:14.217Z,8.00
2022-11-17T23:19:17.316Z,8.75
2022-11-17T23:24:20.366Z,6.25
2022-11-17T23:29:24.461Z,7.50
2022-11-17T23:34:27.551Z,6.50
2022-11-17T23:39:30.519Z,9.50
2022-11-17T23:44:34.756Z,8.00
2022-11-17T23:49:37.500Z,8.50
2022-11-17T23:54:40.329Z,6.75
2022-11-17T23:59:44.469Z,7.25
